Time;durP1;ratioP1;P1;durP2;ratioP2;P2;SDS_P1;SDS_P2;PMS_P1;PMS_P2;Temp;Humidity;BMP_temperature;BMP_pressure;BME280_temperature;BME280_humidity;BME280_pressure;Samples;Min_cycle;Max_cycle;Signal;HPM_P1;HPM_P2
2021/12/13 00:01:25;;;;;;;29.87;17.23;;;;;;;2.01;79.09;99830.50;1741996;82;21040;-40
2021/12/13 00:04:03;;;;;;;28.83;17.52;;;;;;;2.02;79.10;99838.78;1742358;82;21026;-40
2021/12/13 00:06:34;;;;;;;29.12;18.20;;;;;;;1.97;79.25;99832.17;1741321;82;21144;-40
2021/12/13 00:09:07;;;;;;;29.32;18.10;;;;;;;1.96;79.36;99833.25;1741867;81;21021;-40
2021/12/13 00:11:37;;;;;;;29.82;19.50;;;;;;;2.00;79.31;99834.80;1741796;82;21035;-40
2021/12/13 00:14:15;;;;;;;31.05;19.40;;;;;;;2.00;79.33;99836.93;1719489;82;21037;-39
2021/12/13 00:16:48;;;;;;;32.63;18.62;;;;;;;2.02;79.42;99846.02;1750648;82;21598;-40
2021/12/13 00:19:21;;;;;;;31.62;19.95;;;;;;;2.05;79.20;99839.53;1750428;81;21482;-40
2021/12/13 00:21:52;;;;;;;30.32;19.35;;;;;;;2.05;79.01;99845.42;1750348;81;20972;-40
2021/12/13 00:24:27;;;;;;;32.13;20.55;;;;;;;2.03;79.08;99849.71;1749427;82;21084;-40
2021/12/13 00:27:16;;;;;;;33.35;20.62;;;;;;;2.01;79.19;99847.89;1749886;82;21037;-40
2021/12/13 00:30:04;;;;;;;33.53;21.52;;;;;;;2.07;79.15;99846.73;1750509;81;21498;-40
2021/12/13 00:33:18;;;;;;;37.28;22.40;;;;;;;2.09;79.18;99849.09;1750610;81;21118;-40
2021/12/13 00:35:51;;;;;;;32.17;19.95;;;;;;;2.05;79.30;99834.18;1750516;82;21015;-39
2021/12/13 00:38:21;;;;;;;34.03;21.87;;;;;;;2.04;79.13;99833.92;1738095;82;20984;-40
2021/12/13 00:40:56;;;;;;;35.45;21.75;;;;;;;2.12;79.06;99827.13;1720855;83;21041;-40
2021/12/13 00:43:40;;;;;;;36.63;21.25;;;;;;;2.12;79.06;99827.13;1720786;82;21088;-40
2021/12/13 00:46:10;;;;;;;35.92;21.45;;;;;;;2.13;78.99;99827.39;1720660;83;21216;-40
2021/12/13 00:48:38;;;;;;;;;;;;;;;2.16;78.85;99818.23;1723303;82;21076;-40
2021/12/13 00:51:28;;;;;;;36.30;21.62;;;;;;;2.19;78.75;99816.30;1720654;82;20168;-40
2021/12/13 00:53:58;;;;;;;35.55;21.35;;;;;;;2.10;79.02;99810.58;1720698;83;20984;-40
2021/12/13 00:57:01;;;;;;;32.23;21.02;;;;;;;2.13;78.99;99811.34;1720751;83;21000;-40
2021/12/13 00:59:33;;;;;;;37.25;22.87;;;;;;;2.18;78.81;99801.33;1723862;82;21158;-40
2021/12/13 01:02:11;;;;;;;40.60;24.40;;;;;;;2.24;78.71;99814.08;1748145;82;21028;-40
2021/12/13 01:05:26;;;;;;;34.67;22.52;;;;;;;2.24;78.70;99806.06;1728323;82;21546;-40
2021/12/13 01:08:14;;;;;;;34.90;20.55;;;;;;;2.21;78.57;99803.19;1723679;82;20965;-39
2021/12/13 01:10:58;;;;;;;33.50;21.42;;;;;;;2.24;78.65;99802.59;1737788;82;21002;-40
2021/12/13 01:13:33;;;;;;;33.98;20.55;;;;;;;2.28;78.50;99799.03;1750910;81;21138;-40
2021/12/13 01:16:22;;;;;;;30.65;19.02;;;;;;;2.23;78.27;99788.41;1750575;81;21016;-40
2021/12/13 01:19:13;;;;;;;28.80;18.25;;;;;;;2.15;78.25;99785.88;1708423;81;21583;-40
2021/12/13 01:22:54;;;;;;;29.72;18.80;;;;;;;2.16;78.25;99782.13;1749059;81;21023;-40
2021/12/13 01:27:42;;;;;;;26.85;17.85;;;;;;;2.03;78.46;99793.55;1698826;83;21918;-41
2021/12/13 01:30:14;;;;;;;26.10;17.70;;;;;;;2.05;78.45;99783.91;1721351;83;21009;-40
2021/12/13 01:32:44;;;;;;;28.47;18.55;;;;;;;2.06;78.20;99774.81;1721348;83;21529;-40
2021/12/13 01:35:22;;;;;;;29.52;18.92;;;;;;;2.08;78.30;99785.45;1721626;83;21080;-40
2021/12/13 01:37:53;;;;;;;27.90;17.98;;;;;;;2.07;78.42;99782.55;1721612;83;21419;-40
2021/12/13 01:40:20;;;;;;;30.70;19.73;;;;;;;2.07;78.43;99773.73;1721696;83;21111;-40
2021/12/13 01:42:57;;;;;;;25.30;14.95;;;;;;;2.11;78.39;99772.05;1721398;83;21719;-40
2021/12/13 01:45:24;;;;;;;29.55;19.27;;;;;;;2.15;78.33;99777.86;1720928;83;21115;-40
2021/12/13 01:47:50;;;;;;;27.58;17.27;;;;;;;2.09;78.19;99788.37;1671682;83;21561;-40
2021/12/13 01:50:22;;;;;;;26.70;17.77;;;;;;;2.05;78.19;99781.23;1721455;83;21091;-40
2021/12/13 01:52:52;;;;;;;29.35;18.57;;;;;;;2.08;78.25;99788.13;1721322;83;21991;-40
2021/12/13 01:55:32;;;;;;;29.02;18.00;;;;;;;2.12;78.38;99781.67;1721772;83;20941;-40
2021/12/13 01:58:35;;;;;;;28.25;17.77;;;;;;;2.11;78.20;99790.23;1721453;83;21554;-40
2021/12/13 02:01:09;;;;;;;29.25;17.85;;;;;;;2.12;78.26;99792.37;1738456;81;21613;-40
2021/12/13 02:03:52;;;;;;;31.07;18.10;;;;;;;2.15;78.12;99793.11;1751404;81;21084;-40
2021/12/13 02:06:40;;;;;;;31.37;19.67;;;;;;;2.14;78.12;99799.00;1751377;81;21141;-40
2021/12/13 02:09:23;;;;;;;28.50;18.67;;;;;;;2.11;78.25;99800.93;1751249;81;20961;-40
2021/12/13 02:11:55;;;;;;;31.93;19.52;;;;;;;2.11;78.25;99789.44;1751451;81;21094;-40
2021/12/13 02:14:27;;;;;;;30.20;19.70;;;;;;;2.15;78.38;99792.56;1744545;81;21045;-40
2021/12/13 02:17:12;;;;;;;32.33;20.80;;;;;;;2.21;78.50;99791.14;1742675;81;21052;-40
2021/12/13 02:19:59;;;;;;;29.98;19.55;;;;;;;2.24;78.62;99785.20;1742118;82;21076;-40
2021/12/13 02:22:51;;;;;;;32.48;19.77;;;;;;;2.29;78.40;99793.14;1742472;81;21516;-40
2021/12/13 02:25:26;;;;;;;32.90;21.55;;;;;;;2.27;78.06;99799.34;1742293;82;21029;-40
2021/12/13 02:28:05;;;;;;;34.18;21.90;;;;;;;2.26;78.27;99799.09;1742091;82;21084;-40
2021/12/13 02:30:46;;;;;;;38.10;21.40;;;;;;;2.25;78.28;99795.61;1741150;82;21045;-40
2021/12/13 02:33:17;;;;;;;36.83;23.35;;;;;;;2.26;78.25;99795.87;1742603;82;21200;-40
2021/12/13 02:35:49;;;;;;;36.90;23.42;;;;;;;2.30;78.16;99793.39;1740944;82;21103;-40
2021/12/13 02:38:16;;;;;;;40.65;24.90;;;;;;;2.24;78.27;99790.55;1742474;82;20988;-40
2021/12/13 02:40:43;;;;;;;42.15;23.92;;;;;;;2.18;78.50;99797.31;1742250;81;20902;-40
2021/12/13 02:43:11;;;;;;;39.30;24.07;;;;;;;2.15;78.47;99789.89;1742566;82;21597;-40
2021/12/13 02:45:43;;;;;;;41.75;25.23;;;;;;;2.16;78.50;99796.84;1742252;82;21102;-40
2021/12/13 02:48:30;;;;;;;44.55;24.90;;;;;;;2.13;78.59;99793.39;1742503;82;20968;-40
2021/12/13 02:51:23;;;;;;;41.60;24.92;;;;;;;2.11;78.72;99788.89;1742193;81;21546;-40
2021/12/13 02:53:57;;;;;;;41.02;24.23;;;;;;;2.14;78.77;99793.65;1742150;81;21645;-39
2021/12/13 02:56:32;;;;;;;46.90;27.27;;;;;;;2.13;78.86;99784.03;1742282;82;21744;-40
2021/12/13 02:58:59;;;;;;;49.10;26.45;;;;;;;2.13;79.03;99784.03;1741969;82;21118;-40
2021/12/13 03:01:48;;;;;;;40.15;25.05;;;;;;;2.15;79.05;99779.73;1742218;82;21786;-40
2021/12/13 03:04:19;;;;;;;47.17;26.37;;;;;;;2.22;79.03;99773.47;1742760;82;21092;-40
2021/12/13 03:06:52;;;;;;;48.50;26.82;;;;;;;2.25;78.94;99770.74;1742352;82;21291;-40
2021/12/13 03:09:22;;;;;;;45.15;26.20;;;;;;;2.22;78.99;99762.77;1742258;81;21461;-40
2021/12/13 03:11:49;;;;;;;;;;;;;;;2.22;79.05;99759.30;1744981;81;21098;-40
2021/12/13 03:14:27;;;;;;;42.58;25.70;;;;;;;2.25;79.00;99760.04;1747426;81;20150;-40
2021/12/13 03:17:24;;;;;;;49.10;26.87;;;;;;;2.23;79.30;99757.65;1751308;81;21808;-40
2021/12/13 03:20:34;;;;;;;48.68;26.52;;;;;;;2.27;79.26;99753.86;1751303;81;21547;-40
2021/12/13 03:23:24;;;;;;;45.52;24.52;;;;;;;2.30;79.37;99754.60;1722053;81;21084;-40
2021/12/13 03:26:08;;;;;;;43.85;25.40;;;;;;;2.32;78.97;99759.13;1738794;81;21126;-40
2021/12/13 03:29:05;;;;;;;46.80;27.37;;;;;;;2.35;78.92;99753.17;1751242;81;21064;-40
2021/12/13 03:31:40;;;;;;;47.73;26.40;;;;;;;2.31;78.83;99750.30;1751230;81;20989;-40
2021/12/13 03:34:23;;;;;;;43.65;25.52;;;;;;;2.29;78.89;99747.12;1751133;81;20981;-40
2021/12/13 03:37:09;;;;;;;44.60;24.95;;;;;;;2.33;78.79;99744.64;1745725;81;21688;-40
2021/12/13 03:39:41;;;;;;;42.05;24.57;;;;;;;2.36;78.70;99735.50;1751183;81;21118;-39
2021/12/13 03:42:18;;;;;;;46.88;26.10;;;;;;;2.33;78.67;99733.94;1751658;81;21267;-40
2021/12/13 03:44:48;;;;;;;43.17;24.40;;;;;;;2.32;78.74;99729.70;1751145;81;21024;-40
2021/12/13 03:47:23;;;;;;;37.58;23.92;;;;;;;2.31;78.67;99729.44;1751676;81;21534;-40
2021/12/13 03:49:55;;;;;;;43.40;25.82;;;;;;;2.33;78.69;99729.92;1751315;81;21017;-40
2021/12/13 03:52:25;;;;;;;41.40;25.37;;;;;;;2.33;78.63;99721.36;1751602;81;21104;-40
2021/12/13 03:54:53;;;;;;;42.03;23.92;;;;;;;2.30;78.58;99722.50;1751327;81;20915;-40
2021/12/13 03:57:19;;;;;;;42.23;25.40;;;;;;;2.31;78.78;99722.75;1751591;81;21052;-40
2021/12/13 03:59:46;;;;;;;43.33;24.07;;;;;;;2.37;78.76;99712.22;1751240;81;21033;-40
2021/12/13 04:02:18;;;;;;;46.60;26.10;;;;;;;2.37;78.77;99717.00;1751649;81;21821;-40
2021/12/13 04:04:55;;;;;;;43.52;24.50;;;;;;;2.36;78.62;99706.06;1750415;81;21058;-40
2021/12/13 04:07:29;;;;;;;41.33;25.10;;;;;;;2.34;78.53;99704.77;1751705;81;21037;-40
2021/12/13 04:09:58;;;;;;;39.48;24.02;;;;;;;2.01;78.48;99654.02;1751206;81;21594;-40
2021/12/13 04:12:32;;;;;;;41.25;23.95;;;;;;;2.33;78.65;99707.19;1751710;81;20969;-40
2021/12/13 04:15:02;;;;;;;40.25;23.92;;;;;;;2.30;78.59;99711.26;1748685;81;21623;-40
2021/12/13 04:17:43;;;;;;;40.90;24.15;;;;;;;2.28;78.63;99717.98;1747864;81;21147;-40
2021/12/13 04:20:07;;;;;;;39.10;24.25;;;;;;;2.30;78.56;99723.84;1746260;82;21068;-40
2021/12/13 04:22:37;;;;;;;48.50;24.90;;;;;;;2.32;78.64;99735.05;1748314;81;20969;-40
2021/12/13 04:25:16;;;;;;;43.50;24.55;;;;;;;2.36;78.79;99730.69;1748370;82;21343;-40
2021/12/13 04:29:42;;;;;;;40.25;23.12;;;;;;;2.50;78.45;99734.17;1828992;78;22542;-39
2021/12/13 04:32:19;;;;;;;45.10;25.60;;;;;;;2.44;78.48;99740.70;1802528;79;21038;-39
2021/12/13 04:34:47;;;;;;;40.60;23.85;;;;;;;2.45;78.30;99736.39;1801984;79;21957;-39
2021/12/13 04:37:17;;;;;;;42.15;24.05;;;;;;;2.43;78.24;99741.23;1802422;79;20951;-39
2021/12/13 04:39:45;;;;;;;49.53;27.50;;;;;;;2.45;78.24;99745.77;1802424;79;21488;-39
2021/12/13 04:42:16;;;;;;;45.98;27.00;;;;;;;2.49;78.06;99744.62;1802370;79;21021;-39
2021/12/13 04:44:57;;;;;;;53.75;29.42;;;;;;;2.49;78.04;99741.94;1802255;79;21770;-39
2021/12/13 04:47:33;;;;;;;52.73;27.77;;;;;;;2.47;78.23;99748.16;1798016;79;21125;-39
2021/12/13 04:50:11;;;;;;;51.37;28.55;;;;;;;2.44;78.27;99742.83;1802253;79;21006;-40
2021/12/13 04:52:38;;;;;;;54.25;29.90;;;;;;;2.43;78.26;99745.25;1802440;79;21568;-39
2021/12/13 04:55:13;;;;;;;53.33;30.30;;;;;;;2.09;78.47;99692.11;1802220;79;20936;-39
2021/12/13 04:57:40;;;;;;;53.40;28.83;;;;;;;2.44;78.71;99743.38;1802561;79;21066;-40
2021/12/13 05:00:14;;;;;;;56.20;29.27;;;;;;;2.47;78.77;99746.81;1790652;79;21641;-39
2021/12/13 05:02:51;;;;;;;60.23;33.02;;;;;;;2.53;78.62;99755.77;1770985;81;20973;-39
2021/12/13 05:05:18;;;;;;;55.85;31.73;;;;;;;2.56;78.48;99763.22;1784397;79;20996;-39
2021/12/13 05:07:47;;;;;;;57.38;31.45;;;;;;;2.53;78.40;99762.46;1802389;79;20985;-39
2021/12/13 05:10:14;;;;;;;57.53;30.27;;;;;;;2.52;78.30;99761.41;1802243;79;21621;-39
2021/12/13 05:12:40;;;;;;;54.83;31.00;;;;;;;2.54;78.28;99766.73;1802275;79;22023;-40
2021/12/13 05:15:11;;;;;;;58.35;32.40;;;;;;;2.60;78.29;99772.78;1802146;79;20953;-40
2021/12/13 05:17:44;;;;;;;58.08;30.62;;;;;;;2.63;78.25;99772.18;1802753;79;20998;-39
2021/12/13 05:20:33;;;;;;;61.02;30.97;;;;;;;2.59;78.10;99777.88;1802269;79;21522;-39
2021/12/13 05:23:12;;;;;;;60.35;31.48;;;;;;;2.59;78.04;99775.20;1802337;79;21052;-39
2021/12/13 05:25:43;;;;;;;55.58;32.03;;;;;;;2.55;78.06;99782.24;1802489;79;22167;-39
2021/12/13 05:28:17;;;;;;;58.38;32.73;;;;;;;2.54;78.17;99773.96;1799664;79;20969;-40
2021/12/13 05:30:54;;;;;;;57.80;31.35;;;;;;;2.50;78.22;99769.75;1791301;79;21064;-39
2021/12/13 05:33:20;;;;;;;57.23;31.82;;;;;;;2.55;78.37;99767.52;1791451;80;21014;-39
2021/12/13 05:35:53;;;;;;;55.52;31.80;;;;;;;2.55;78.15;99762.97;1791462;79;21025;-39
2021/12/13 05:38:43;;;;;;;59.25;31.35;;;;;;;2.55;78.21;99760.84;1791662;80;21777;-39
2021/12/13 05:41:15;;;;;;;;;;;;;;;2.57;78.36;99757.30;1793422;80;20907;-39
2021/12/13 05:43:53;;;;;;;52.85;29.60;;;;;;;2.59;78.26;99751.11;1788221;79;20126;-39
2021/12/13 05:46:24;;;;;;;57.08;30.92;;;;;;;2.55;78.22;99758.16;1784854;80;21515;-40
2021/12/13 05:48:54;;;;;;;57.45;31.17;;;;;;;2.56;78.27;99765.90;1789265;79;21071;-39
2021/12/13 05:51:38;;;;;;;56.33;31.27;;;;;;;2.57;78.37;99761.31;1790970;79;21846;-39
2021/12/13 05:54:12;;;;;;;53.78;29.77;;;;;;;2.24;78.20;99711.64;1790970;80;21038;-40
2021/12/13 05:56:47;;;;;;;55.83;29.27;;;;;;;2.56;78.03;99757.08;1790828;79;21790;-40
2021/12/13 05:59:28;;;;;;;54.30;29.35;;;;;;;2.57;78.14;99753.28;1790995;80;20978;-39
2021/12/13 06:02:11;;;;;;;53.92;29.25;;;;;;;2.56;78.05;99745.03;1789655;79;21026;-39
2021/12/13 06:04:46;;;;;;;47.95;27.67;;;;;;;2.53;78.02;99754.97;1790653;80;21141;-39
2021/12/13 06:07:28;;;;;;;52.55;29.45;;;;;;;2.54;77.99;99759.23;1782579;80;21049;-39
2021/12/13 06:10:13;;;;;;;52.55;30.02;;;;;;;2.50;78.06;99771.63;1790903;80;20930;-39
2021/12/13 06:12:54;;;;;;;52.15;26.33;;;;;;;2.46;78.18;99766.63;1790791;80;21057;-39
2021/12/13 06:15:37;;;;;;;49.13;27.67;;;;;;;2.45;78.30;99775.20;1790865;80;21244;-40
2021/12/13 06:18:09;;;;;;;45.67;27.70;;;;;;;2.49;78.28;99771.38;1790555;80;21142;-39
2021/12/13 06:20:55;;;;;;;48.65;27.73;;;;;;;2.54;78.23;99782.78;1790584;79;21005;-39
2021/12/13 06:23:29;;;;;;;47.67;25.97;;;;;;;2.53;78.18;99785.20;1790778;80;21022;-40
2021/12/13 06:26:08;;;;;;;42.48;24.67;;;;;;;2.52;78.08;99792.98;1789848;80;21036;-39
2021/12/13 06:28:43;;;;;;;42.45;24.07;;;;;;;2.54;77.87;99796.70;1793183;79;21018;-40
2021/12/13 06:31:16;;;;;;;46.40;25.25;;;;;;;2.50;77.84;99794.38;1799120;78;21872;-40
2021/12/13 06:33:53;;;;;;;44.13;23.60;;;;;;;2.46;77.97;99791.51;1799059;79;21021;-40
2021/12/13 06:36:42;;;;;;;41.73;23.65;;;;;;;2.47;78.05;99796.31;1799377;79;20922;-39
2021/12/13 06:39:16;;;;;;;42.00;23.67;;;;;;;2.52;78.11;99801.55;1799102;79;20914;-39
2021/12/13 06:41:47;;;;;;;43.17;23.90;;;;;;;2.60;78.04;99802.23;1798760;79;21531;-40
2021/12/13 06:44:25;;;;;;;43.60;23.50;;;;;;;2.62;78.08;99795.47;1799090;79;21102;-39
2021/12/13 06:47:03;;;;;;;38.98;21.12;;;;;;;2.63;78.02;99797.06;1793274;79;21012;-40
2021/12/13 06:49:38;;;;;;;37.93;22.85;;;;;;;2.66;77.82;99779.63;1799261;78;20977;-39
2021/12/13 06:52:13;;;;;;;37.85;23.67;;;;;;;2.70;77.61;99785.19;1798593;79;21004;-39
2021/12/13 06:54:57;;;;;;;45.10;23.55;;;;;;;2.68;77.65;99780.11;1799170;79;21073;-40
2021/12/13 06:57:40;;;;;;;38.67;22.00;;;;;;;2.69;77.79;99763.52;1791434;79;21828;-39
2021/12/13 07:00:21;;;;;;;35.13;21.65;;;;;;;2.69;77.85;99763.52;1799121;79;21037;-39
2021/12/13 07:02:52;;;;;;;39.65;22.50;;;;;;;2.75;77.70;99761.78;1799030;79;21077;-39
2021/12/13 07:05:35;;;;;;;39.73;22.55;;;;;;;2.78;77.69;99757.70;1799210;79;21037;-39
2021/12/13 07:08:09;;;;;;;37.10;21.52;;;;;;;2.78;77.49;99767.88;1799090;79;21459;-39
2021/12/13 07:10:59;;;;;;;39.92;21.40;;;;;;;2.76;77.28;99768.70;1799087;78;21115;-40
2021/12/13 07:13:30;;;;;;;35.40;21.15;;;;;;;2.76;77.22;99764.69;1797904;79;21022;-39
2021/12/13 07:16:08;;;;;;;35.78;21.57;;;;;;;2.78;77.12;99758.50;1799439;79;21565;-39
2021/12/13 07:18:55;;;;;;;38.08;21.95;;;;;;;2.78;77.08;99757.17;1799070;78;20954;-40
2021/12/13 07:21:29;;;;;;;33.48;19.90;;;;;;;2.76;77.17;99758.00;1799265;79;21059;-39
2021/12/13 07:24:09;;;;;;;41.08;22.17;;;;;;;2.78;77.21;99746.45;1799006;78;21491;-39
2021/12/13 07:26:57;;;;;;;39.67;22.77;;;;;;;2.84;77.10;99745.81;1799480;79;20945;-39
2021/12/13 07:29:31;;;;;;;43.40;23.30;;;;;;;2.88;77.00;99748.94;1793118;79;21061;-40
2021/12/13 07:32:27;;;;;;;34.53;20.60;;;;;;;2.83;76.90;99750.37;1779659;79;20969;-39
2021/12/13 07:35:11;;;;;;;34.83;20.52;;;;;;;2.79;76.96;99749.93;1799041;79;21644;-39
2021/12/13 07:37:53;;;;;;;31.35;20.32;;;;;;;2.77;76.94;99743.52;1799390;79;21762;-39
2021/12/13 07:40:34;;;;;;;39.18;21.23;;;;;;;2.77;76.81;99732.81;1799174;79;21613;-39
2021/12/13 07:43:28;;;;;;;39.53;22.87;;;;;;;2.75;76.91;99743.05;1753667;79;20996;-39
2021/12/13 07:46:06;;;;;;;38.05;20.77;;;;;;;2.75;77.21;99758.31;1798908;79;21022;-39
2021/12/13 07:48:44;;;;;;;32.90;20.30;;;;;;;2.76;77.09;99768.70;1799537;78;21025;-39
2021/12/13 07:51:27;;;;;;;34.43;20.62;;;;;;;2.83;77.06;99769.12;1799064;79;21091;-39
2021/12/13 07:54:08;;;;;;;38.78;21.62;;;;;;;2.88;76.80;99779.73;1799169;79;21793;-39
2021/12/13 07:56:50;;;;;;;35.73;21.25;;;;;;;2.85;76.69;99787.57;1798520;79;20989;-39
2021/12/13 07:59:33;;;;;;;35.50;19.75;;;;;;;2.84;76.81;99786.77;1799514;79;21653;-39
2021/12/13 08:02:19;;;;;;;32.40;19.98;;;;;;;2.90;76.76;99796.84;1798902;78;21060;-39
2021/12/13 08:04:52;;;;;;;39.85;21.15;;;;;;;2.94;76.46;99806.66;1799117;78;21126;-39
2021/12/13 08:07:26;;;;;;;35.20;20.48;;;;;;;2.90;76.56;99815.59;1793826;79;21076;-39
2021/12/13 08:10:09;;;;;;;31.55;19.00;;;;;;;2.92;76.67;99828.12;1799122;78;21084;-39
2021/12/13 08:12:46;;;;;;;32.38;18.80;;;;;;;2.98;76.72;99835.77;1799060;79;21033;-39
2021/12/13 08:15:21;;;;;;;29.18;17.90;;;;;;;3.13;76.48;99819.94;1798893;79;21002;-39
2021/12/13 08:17:59;;;;;;;29.32;18.87;;;;;;;3.19;75.87;99811.27;1798932;79;21244;-39
2021/12/13 08:20:31;;;;;;;29.85;18.55;;;;;;;3.13;75.61;99815.12;1799386;79;21098;-40
2021/12/13 08:22:58;;;;;;;31.30;19.52;;;;;;;3.09;75.89;99802.89;1799206;79;20986;-39
2021/12/13 08:25:36;;;;;;;32.93;17.70;;;;;;;3.18;75.78;99813.69;1799318;79;21570;-39
2021/12/13 08:28:09;;;;;;;31.87;18.77;;;;;;;3.26;75.65;99804.39;1767641;79;21088;-39
2021/12/13 08:30:53;;;;;;;32.28;19.55;;;;;;;3.36;75.48;99804.72;1791750;79;21177;-39
2021/12/13 08:33:28;;;;;;;31.33;20.35;;;;;;;3.39;75.06;99800.09;1790518;80;21037;-39
2021/12/13 08:36:13;;;;;;;33.88;20.30;;;;;;;3.37;74.94;99790.23;1775558;80;20946;-39
2021/12/13 08:38:48;;;;;;;35.95;19.65;;;;;;;3.32;74.78;99800.52;1790622;80;20974;-40
2021/12/13 08:41:47;;;;;;;32.20;18.57;;;;;;;3.24;74.71;99795.08;1790781;80;21010;-40
2021/12/13 08:44:31;;;;;;;33.53;19.23;;;;;;;3.21;74.84;99786.28;1737964;82;21150;-39
2021/12/13 08:47:09;;;;;;;33.85;20.50;;;;;;;3.15;74.82;99798.98;1737959;82;20969;-40
2021/12/13 08:49:49;;;;;;;35.60;20.37;;;;;;;3.13;75.23;99795.04;1769870;80;21523;-39
2021/12/13 08:52:27;;;;;;;32.95;19.40;;;;;;;3.12;75.50;99794.24;1790537;80;20970;-39
2021/12/13 08:55:13;;;;;;;32.45;20.37;;;;;;;3.18;75.67;99791.71;1790490;80;21021;-39
2021/12/13 08:58:09;;;;;;;32.50;19.92;;;;;;;3.24;75.58;99781.69;1790462;80;21854;-40
2021/12/13 09:00:53;;;;;;;34.30;19.85;;;;;;;3.23;75.36;99774.73;1790447;80;21075;-40
2021/12/13 09:03:43;;;;;;;35.00;19.07;;;;;;;3.15;75.18;99764.73;1780983;79;20961;-39
2021/12/13 09:06:21;;;;;;;36.05;20.50;;;;;;;3.10;75.33;99763.50;1790625;80;21013;-39
2021/12/13 09:09:11;;;;;;;30.48;19.00;;;;;;;3.08;75.12;99750.94;1790565;79;21853;-40
2021/12/13 09:12:04;;;;;;;29.80;19.17;;;;;;;3.03;75.27;99740.59;1790404;79;21134;-39
2021/12/13 09:14:49;;;;;;;31.48;18.60;;;;;;;2.99;75.53;99760.23;1790512;79;21063;-39
2021/12/13 09:17:31;;;;;;;30.45;18.37;;;;;;;2.97;75.42;99765.09;1790552;79;20993;-39
2021/12/13 09:20:16;;;;;;;32.73;18.92;;;;;;;3.01;75.40;99765.52;1790498;79;21203;-39
2021/12/13 09:22:55;;;;;;;30.60;18.52;;;;;;;3.02;75.37;99764.44;1790683;80;21042;-39
2021/12/13 09:25:41;;;;;;;35.17;20.82;;;;;;;3.00;75.24;99776.56;1790405;80;21735;-40
2021/12/13 09:28:16;;;;;;;27.00;17.67;;;;;;;3.00;75.30;99761.83;1784868;80;20996;-39
2021/12/13 09:31:05;;;;;;;28.45;18.07;;;;;;;2.98;75.38;99751.95;1790816;79;21044;-39
2021/12/13 09:33:40;;;;;;;29.15;16.45;;;;;;;3.08;75.42;99744.25;1791025;80;21484;-40
2021/12/13 09:36:24;;;;;;;35.75;21.00;;;;;;;3.11;75.09;99757.83;1791094;80;21041;-39
2021/12/13 09:39:17;;;;;;;34.63;21.48;;;;;;;3.09;75.27;99770.74;1790910;80;21119;-39
2021/12/13 09:42:00;;;;;;;35.98;20.95;;;;;;;3.08;75.46;99769.15;1790873;79;20999;-39
2021/12/13 09:44:40;;;;;;;29.45;18.98;;;;;;;3.11;75.62;99752.47;1790664;80;20918;-39
2021/12/13 09:47:17;;;;;;;34.67;19.85;;;;;;;3.21;75.41;99756.27;1790552;80;21008;-39
2021/12/13 09:49:58;;;;;;;33.25;20.55;;;;;;;3.22;75.03;99753.05;1786934;79;21100;-40
2021/12/13 09:52:37;;;;;;;32.88;19.30;;;;;;;3.18;74.97;99752.07;1791041;80;21796;-40
2021/12/13 09:55:14;;;;;;;32.90;19.95;;;;;;;3.09;74.94;99761.91;1789967;79;21045;-39
2021/12/13 09:58:08;;;;;;;30.05;18.87;;;;;;;3.04;75.19;99758.25;1790691;79;21018;-39
2021/12/13 10:01:02;;;;;;;29.72;19.17;;;;;;;3.05;75.12;99761.15;1790573;79;21014;-39
2021/12/13 10:03:49;;;;;;;34.20;21.27;;;;;;;3.04;75.15;99772.98;1790699;79;20987;-39
2021/12/13 10:06:21;;;;;;;32.98;20.82;;;;;;;3.02;75.29;99767.12;1790735;80;22075;-39
2021/12/13 10:08:56;;;;;;;34.30;19.40;;;;;;;3.06;75.42;99767.30;1790756;79;20966;-39
2021/12/13 10:11:31;;;;;;;34.65;20.68;;;;;;;3.17;75.29;99765.22;1790614;79;21037;-39
2021/12/13 10:13:58;;;;;;;33.20;21.65;;;;;;;3.26;75.06;99774.13;1790946;80;20993;-40
2021/12/13 10:16:31;;;;;;;34.78;21.68;;;;;;;3.27;74.98;99778.39;1790839;80;21053;-39
2021/12/13 10:19:03;;;;;;;35.03;22.02;;;;;;;3.25;74.96;99779.23;1791015;79;21089;-39
2021/12/13 10:21:36;;;;;;;32.75;20.65;;;;;;;3.24;75.16;99777.12;1790743;79;21587;-39
2021/12/13 10:24:20;;;;;;;31.20;19.82;;;;;;;2.90;74.87;99724.55;1790960;79;20914;-39
2021/12/13 10:26:49;;;;;;;30.25;20.68;;;;;;;3.25;74.71;99780.02;1790885;79;21511;-39
2021/12/13 10:29:17;;;;;;;30.12;20.08;;;;;;;3.12;74.69;99773.35;1790545;79;21488;-39
2021/12/13 10:31:57;;;;;;;29.00;18.53;;;;;;;3.03;74.90;99771.94;1789508;80;22027;-41
2021/12/13 10:34:31;;;;;;;30.27;18.98;;;;;;;2.84;75.19;99751.97;1790844;79;22121;-39
2021/12/13 10:37:17;;;;;;;30.55;19.95;;;;;;;3.02;75.20;99769.80;1790658;80;21084;-39
2021/12/13 10:39:54;;;;;;;34.92;20.88;;;;;;;3.05;75.32;99775.88;1791108;79;22052;-40
2021/12/13 10:42:32;;;;;;;30.92;20.80;;;;;;;3.01;75.50;99768.20;1790386;79;21076;-39
2021/12/13 10:45:08;;;;;;;33.45;21.17;;;;;;;3.01;75.83;99764.19;1790847;80;21198;-39
2021/12/13 10:47:40;;;;;;;31.93;20.48;;;;;;;3.06;75.87;99770.78;1790233;79;21052;-39
2021/12/13 10:50:16;;;;;;;32.65;20.68;;;;;;;3.13;75.74;99761.55;1790612;80;20966;-39
2021/12/13 10:52:48;;;;;;;34.45;22.00;;;;;;;3.18;75.65;99769.48;1790650;80;21018;-39
2021/12/13 10:55:21;;;;;;;40.40;24.05;;;;;;;3.16;75.72;99764.96;1791001;80;21037;-40
2021/12/13 10:57:50;;;;;;;35.48;21.80;;;;;;;3.19;75.62;99763.04;1790073;79;21931;-39
2021/12/13 11:00:39;;;;;;;35.33;21.30;;;;;;;3.18;75.41;99758.77;1790925;79;20997;-40
2021/12/13 11:03:13;;;;;;;26.57;17.52;;;;;;;3.24;75.46;99762.93;1790738;79;21527;-39
2021/12/13 11:05:41;;;;;;;35.73;23.32;;;;;;;3.27;75.54;99748.92;1790106;79;21010;-40
2021/12/13 11:08:08;;;;;;;39.35;22.75;;;;;;;3.31;75.62;99741.86;1790633;80;21025;-39
2021/12/13 11:11:02;;;;;;;36.93;22.22;;;;;;;3.30;75.31;99734.91;1790769;80;21916;-39
2021/12/13 11:13:30;;;;;;;30.08;20.80;;;;;;;3.33;75.21;99730.30;1790640;79;20903;-39
2021/12/13 11:16:02;;;;;;;33.15;22.52;;;;;;;3.34;75.17;99733.23;1790578;80;21038;-39
2021/12/13 11:18:28;;;;;;;33.60;22.58;;;;;;;3.37;75.27;99732.08;1789008;79;21551;-39
2021/12/13 11:21:10;;;;;;;41.70;22.50;;;;;;;3.36;75.16;99730.48;1790779;80;21026;-40
2021/12/13 11:23:39;;;;;;;;;;;;;;;3.35;75.26;99732.91;1793526;79;21882;-39
2021/12/13 11:26:10;;;;;;;30.57;20.92;;;;;;;3.39;75.25;99733.89;1790023;79;20144;-39
2021/12/13 11:28:40;;;;;;;33.33;20.88;;;;;;;3.41;75.26;99733.59;1790850;80;21535;-40
2021/12/13 11:31:33;;;;;;;34.40;22.32;;;;;;;3.51;75.08;99732.03;1796618;79;21072;-39
2021/12/13 11:34:08;;;;;;;31.60;20.80;;;;;;;3.53;75.03;99735.21;1798752;79;21048;-39
2021/12/13 11:37:16;;;;;;;34.45;21.42;;;;;;;3.49;75.00;99742.25;1796827;79;21872;-39
2021/12/13 11:40:12;;;;;;;30.25;20.10;;;;;;;3.50;74.86;99739.27;1767508;79;20957;-39
2021/12/13 11:43:13;;;;;;;33.92;20.95;;;;;;;3.55;74.77;99735.69;1796690;79;21027;-39
2021/12/13 11:45:57;;;;;;;31.27;20.65;;;;;;;3.57;74.72;99736.19;1757094;79;20994;-39
2021/12/13 11:48:57;;;;;;;34.80;22.20;;;;;;;3.57;74.68;99728.14;1799263;79;20991;-39
2021/12/13 11:52:01;;;;;;;31.35;19.85;;;;;;;3.64;74.95;99749.94;1798856;79;21155;-39
2021/12/13 11:55:04;;;;;;;31.82;18.95;;;;;;;3.77;74.66;99752.34;1798943;79;20918;-39
2021/12/13 11:57:53;;;;;;;28.87;19.95;;;;;;;3.87;74.48;99758.23;1777582;79;21069;-39
2021/12/13 12:00:44;;;;;;;28.12;19.52;;;;;;;3.98;74.30;99761.47;1798738;79;21506;-39
2021/12/13 12:04:09;;;;;;;30.60;20.23;;;;;;;4.03;73.77;99762.68;1799313;79;21045;-40
2021/12/13 12:07:22;;;;;;;29.98;20.12;;;;;;;4.00;73.25;99759.83;1798978;79;21148;-39
2021/12/13 12:10:21;;;;;;;27.77;18.87;;;;;;;3.90;73.39;99761.66;1777296;79;20985;-40
2021/12/13 12:13:11;;;;;;;29.77;19.85;;;;;;;3.99;73.41;99768.97;1777436;79;21558;-40
2021/12/13 12:15:41;;;;;;;33.35;19.45;;;;;;;4.03;73.19;99771.28;1798884;79;21009;-40
2021/12/13 12:18:15;;;;;;;25.90;18.65;;;;;;;4.05;73.16;99765.86;1799223;78;21074;-40
2021/12/13 12:20:46;;;;;;;31.65;20.68;;;;;;;4.09;72.81;99769.52;1799076;79;21201;-40
2021/12/13 12:23:32;;;;;;;30.52;20.90;;;;;;;4.07;72.62;99763.65;1798675;79;20918;-40
2021/12/13 12:26:00;;;;;;;26.20;18.67;;;;;;;4.08;72.71;99765.78;1768156;79;21516;-40